createdAt,value
2022-10-05T00:01:40.160Z,9.30
2022-10-05T00:04:29.095Z,9.30
2022-10-05T00:06:57.277Z,9.30
2022-10-05T00:09:24.380Z,9.30
2022-10-05T00:11:51.229Z,9.30
2022-10-05T00:14:24.213Z,9.30
2022-10-05T00:16:51.723Z,9.30
2022-10-05T00:19:27.288Z,9.30
2022-10-05T00:21:58.587Z,9.30
2022-10-05T00:24:25.364Z,9.30
2022-10-05T00:26:57.061Z,9.30
2022-10-05T00:29:25.467Z,9.30
2022-10-05T00:31:52.263Z,9.30
2022-10-05T00:34:19.195Z,9.30
2022-10-05T00:36:46.158Z,9.30
2022-10-05T00:39:13.895Z,9.40
2022-10-05T00:42:07.659Z,9.40
2022-10-05T00:44:37.761Z,9.40
2022-10-05T00:47:15.679Z,9.40
2022-10-05T00:49:50.387Z,9.30
2022-10-05T00:52:36.319Z,9.40
2022-10-05T00:55:24.678Z,9.40
2022-10-05T00:58:00.472Z,9.40
2022-10-05T01:00:28.347Z,9.40
2022-10-05T01:03:01.303Z,9.50
2022-10-05T01:05:48.655Z,9.60
2022-10-05T01:08:15.528Z,9.70
2022-10-05T01:10:55.568Z,10.00
2022-10-05T01:13:30.318Z,10.30
2022-10-05T01:16:20.185Z,10.50
2022-10-05T01:18:50.050Z,10.70
2022-10-05T01:21:22.214Z,10.80
2022-10-05T01:24:07.835Z,10.90
2022-10-05T01:26:35.445Z,11.00
2022-10-05T01:29:15.576Z,11.20
2022-10-05T01:31:42.484Z,11.20
2022-10-05T01:34:18.665Z,11.20
2022-10-05T01:36:53.167Z,11.20
2022-10-05T01:39:38.582Z,11.30
2022-10-05T01:42:18.026Z,11.30
2022-10-05T01:44:55.156Z,11.30
2022-10-05T01:47:25.730Z,11.30
2022-10-05T01:49:59.467Z,11.30
2022-10-05T01:52:45.673Z,11.30
2022-10-05T01:55:16.403Z,11.20
2022-10-05T01:57:43.618Z,11.10
2022-10-05T02:00:12.372Z,11.10
2022-10-05T02:02:47.853Z,11.10
2022-10-05T02:05:24.939Z,11.10
2022-10-05T02:07:58.742Z,11.10
2022-10-05T02:10:29.278Z,11.00
2022-10-05T02:13:01.074Z,10.90
2022-10-05T02:15:37.671Z,10.90
2022-10-05T02:18:09.202Z,10.80
2022-10-05T02:20:38.467Z,10.70
2022-10-05T02:23:07.990Z,10.60
2022-10-05T02:25:38.425Z,10.60
2022-10-05T02:28:18.119Z,10.50
2022-10-05T02:30:49.238Z,10.40
2022-10-05T02:33:27.654Z,10.40
2022-10-05T02:36:00.488Z,10.30
2022-10-05T02:38:37.672Z,10.30
2022-10-05T02:41:30.325Z,10.30
2022-10-05T02:44:20.358Z,10.20
2022-10-05T02:46:57.161Z,10.20
2022-10-05T02:49:39.092Z,10.20
2022-10-05T02:52:22.375Z,10.20
2022-10-05T02:55:15.662Z,10.10
2022-10-05T02:57:46.777Z,10.00
2022-10-05T03:00:19.844Z,10.00
2022-10-05T03:02:51.957Z,10.00
2022-10-05T03:05:22.531Z,9.90
2022-10-05T03:07:59.293Z,9.90
2022-10-05T03:10:41.852Z,9.80
2022-10-05T03:13:29.805Z,9.80
2022-10-05T03:16:02.889Z,9.80
2022-10-05T03:18:39.622Z,9.80
2022-10-05T03:21:25.202Z,9.80
2022-10-05T03:24:03.944Z,9.80
2022-10-05T03:26:42.881Z,9.70
2022-10-05T03:29:18.800Z,9.70
2022-10-05T03:31:51.369Z,9.70
2022-10-05T03:34:26.538Z,9.60
2022-10-05T03:37:03.908Z,9.60
2022-10-05T03:39:51.187Z,9.60
2022-10-05T03:42:38.963Z,9.60
2022-10-05T03:45:24.356Z,9.50
2022-10-05T03:47:51.815Z,9.40
2022-10-05T03:50:24.925Z,9.30
2022-10-05T03:52:56.774Z,9.20
2022-10-05T03:55:43.376Z,9.20
2022-10-05T03:58:14.649Z,9.10
2022-10-05T04:00:45.256Z,9.10
2022-10-05T04:03:15.714Z,9.10
2022-10-05T04:05:45.820Z,9.10
2022-10-05T04:08:20.216Z,9.00
2022-10-05T04:10:49.564Z,9.00
2022-10-05T04:13:29.404Z,9.00
2022-10-05T04:16:00.915Z,8.90
2022-10-05T04:18:35.271Z,8.80
2022-10-05T04:21:22.802Z,8.80
2022-10-05T04:23:56.434Z,8.80
2022-10-05T04:26:30.875Z,8.80
2022-10-05T04:29:03.003Z,8.70
2022-10-05T04:31:33.084Z,8.70
2022-10-05T04:34:04.288Z,8.70
2022-10-05T04:36:39.007Z,8.70
2022-10-05T04:39:15.134Z,8.70
2022-10-05T04:41:45.824Z,8.70
2022-10-05T04:44:13.250Z,8.60
2022-10-05T04:46:44.577Z,8.50
2022-10-05T04:49:12.534Z,8.50
2022-10-05T04:51:39.447Z,8.50
2022-10-05T04:54:17.522Z,8.50
2022-10-05T04:56:56.304Z,8.50
2022-10-05T04:59:36.024Z,8.50
2022-10-05T05:02:03.409Z,8.40
2022-10-05T05:04:37.053Z,8.40
2022-10-05T05:07:06.234Z,8.40
2022-10-05T05:09:33.066Z,8.30
2022-10-05T05:12:12.810Z,8.30
2022-10-05T05:14:50.917Z,8.30
2022-10-05T05:17:22.271Z,8.20
2022-10-05T05:20:02.035Z,8.10
2022-10-05T05:22:50.894Z,8.00
2022-10-05T05:25:22.128Z,8.00
2022-10-05T05:27:53.538Z,8.00
2022-10-05T05:30:24.110Z,8.00
2022-10-05T05:33:01.194Z,8.00
2022-10-05T05:35:29.267Z,8.00
2022-10-05T05:38:02.568Z,8.00
2022-10-05T05:40:29.945Z,8.00
2022-10-05T05:43:08.889Z,7.90
2022-10-05T05:46:02.550Z,7.90
2022-10-05T05:48:34.907Z,7.90
2022-10-05T05:51:09.623Z,7.90
2022-10-05T05:53:43.959Z,7.90
2022-10-05T05:56:18.199Z,7.90
2022-10-05T05:58:45.635Z,7.80
2022-10-05T06:01:32.123Z,7.60
2022-10-05T06:04:06.595Z,7.50
2022-10-05T06:06:36.121Z,7.50
2022-10-05T06:09:23.070Z,7.50
2022-10-05T06:12:00.910Z,7.50
2022-10-05T06:14:32.450Z,7.60
2022-10-05T06:17:11.703Z,7.70
2022-10-05T06:19:40.140Z,7.80
2022-10-05T06:22:29.786Z,7.80
2022-10-05T06:24:56.939Z,7.90
2022-10-05T06:27:26.913Z,8.00
2022-10-05T06:30:06.912Z,8.00
2022-10-05T06:32:39.321Z,8.00
2022-10-05T06:35:26.590Z,8.00
2022-10-05T06:38:05.612Z,8.00
2022-10-05T06:43:41.655Z,8.10
2022-10-05T06:46:36.019Z,8.00
2022-10-05T06:49:24.469Z,8.00
2022-10-05T06:52:22.159Z,8.00
2022-10-05T06:55:03.668Z,8.10
2022-10-05T06:57:50.223Z,8.10
2022-10-05T07:00:21.972Z,8.10
2022-10-05T07:02:57.974Z,8.20
2022-10-05T07:05:44.038Z,8.20
2022-10-05T07:08:28.560Z,8.30
2022-10-05T07:10:58.352Z,8.30
2022-10-05T07:13:44.715Z,8.40
2022-10-05T07:16:30.990Z,8.50
2022-10-05T07:19:16.894Z,8.60
2022-10-05T07:21:46.692Z,8.70
2022-10-05T07:24:29.268Z,8.80
2022-10-05T07:27:03.890Z,8.90
2022-10-05T07:29:46.509Z,9.00
2022-10-05T07:32:14.205Z,9.20
2022-10-05T07:34:56.999Z,9.30
2022-10-05T07:37:49.633Z,9.40
2022-10-05T07:40:23.844Z,9.50
2022-10-05T07:42:58.166Z,9.60
2022-10-05T07:45:28.709Z,9.80
2022-10-05T07:48:04.589Z,10.00
2022-10-05T07:50:31.819Z,10.20
2022-10-05T07:53:02.686Z,10.40
2022-10-05T07:55:36.589Z,10.60
2022-10-05T07:58:15.817Z,10.80
2022-10-05T08:00:43.561Z,10.90
2022-10-05T08:03:17.025Z,11.00
2022-10-05T08:05:47.584Z,11.10
2022-10-05T08:08:22.162Z,11.30
2022-10-05T08:10:49.260Z,11.40
2022-10-05T08:13:22.765Z,11.40
2022-10-05T08:15:56.037Z,11.60
2022-10-05T08:18:42.257Z,11.80
2022-10-05T08:21:12.534Z,12.00
2022-10-05T08:23:44.767Z,12.20
2022-10-05T08:26:12.460Z,12.50
2022-10-05T08:28:42.756Z,12.70
2022-10-05T08:31:23.512Z,13.00
2022-10-05T08:33:57.170Z,13.30
2022-10-05T08:36:41.137Z,13.60
2022-10-05T08:39:13.924Z,13.90
2022-10-05T08:41:56.107Z,14.20
2022-10-05T08:44:33.542Z,14.40
2022-10-05T08:47:00.656Z,14.60
2022-10-05T08:49:35.323Z,14.90
2022-10-05T08:52:21.224Z,15.10
2022-10-05T08:55:04.746Z,15.30
2022-10-05T08:57:47.354Z,15.40
2022-10-05T09:00:38.472Z,15.60
2022-10-05T09:03:11.832Z,15.70
2022-10-05T09:05:59.069Z,15.80
2022-10-05T09:08:39.150Z,15.90
2022-10-05T09:11:25.978Z,15.80
2022-10-05T09:13:55.626Z,15.90
2022-10-05T09:16:25.518Z,16.00
2022-10-05T09:19:01.952Z,16.10
2022-10-05T09:21:53.588Z,16.20
2022-10-05T09:24:26.534Z,16.20
2022-10-05T09:27:02.291Z,16.30
2022-10-05T09:29:30.190Z,16.40
2022-10-05T09:31:59.992Z,16.40
2022-10-05T09:54:13.897Z,17.00
2022-10-05T09:57:04.248Z,17.10
2022-10-05T09:59:43.420Z,17.10
2022-10-05T10:02:17.972Z,17.20
2022-10-05T10:04:51.035Z,17.30
2022-10-05T10:07:31.124Z,17.30
2022-10-05T10:10:01.207Z,17.30
2022-10-05T10:12:35.175Z,17.40
2022-10-05T10:15:21.321Z,17.30
2022-10-05T10:18:08.334Z,17.40
2022-10-05T10:20:56.585Z,17.50
2022-10-05T10:24:07.378Z,17.60
2022-10-05T10:26:42.930Z,17.70
2022-10-05T10:29:36.685Z,18.00
2022-10-05T10:32:25.148Z,18.10
2022-10-05T10:35:09.823Z,18.30
2022-10-05T10:37:41.099Z,18.60
2022-10-05T10:40:30.260Z,18.60
2022-10-05T10:43:18.256Z,18.90
2022-10-05T10:46:00.839Z,18.90
2022-10-05T10:48:58.327Z,19.00
2022-10-05T10:52:01.042Z,19.00
2022-10-05T10:54:45.102Z,19.00
2022-10-05T10:57:15.944Z,19.10
2022-10-05T11:00:03.682Z,19.40
2022-10-05T11:02:54.528Z,19.40
2022-10-05T11:05:22.617Z,19.20
2022-10-05T11:08:18.849Z,19.10
2022-10-05T11:11:04.224Z,19.00
2022-10-05T11:13:40.183Z,19.10
2022-10-05T11:16:36.969Z,19.10
2022-10-05T11:19:24.888Z,19.10
2022-10-05T11:22:13.962Z,18.90
2022-10-05T11:24:50.322Z,18.90
2022-10-05T11:27:33.945Z,19.00
2022-10-05T11:30:16.981Z,19.00
2022-10-05T11:32:46.898Z,18.80
2022-10-05T11:35:26.249Z,18.60
2022-10-05T11:37:59.442Z,18.60
2022-10-05T11:40:43.467Z,18.60
2022-10-05T11:43:23.442Z,18.60
2022-10-05T11:45:59.912Z,18.80
2022-10-05T11:48:46.216Z,18.70
2022-10-05T13:20:09.836Z,18.80
2022-10-05T13:22:46.365Z,18.70
2022-10-05T13:25:13.865Z,18.70
2022-10-05T13:27:57.808Z,18.80
2022-10-05T13:30:26.103Z,18.80
2022-10-05T13:32:58.673Z,18.90
2022-10-05T13:35:27.250Z,18.90
2022-10-05T13:38:20.930Z,18.90
2022-10-05T13:40:51.621Z,18.90
2022-10-05T13:43:21.911Z,18.90
2022-10-05T13:45:55.815Z,18.90
2022-10-05T13:48:27.000Z,18.90
2022-10-05T13:51:00.947Z,19.00
2022-10-05T13:53:31.935Z,19.00
2022-10-05T13:56:00.948Z,19.10
2022-10-05T13:58:33.948Z,19.10
2022-10-05T14:01:13.825Z,19.00
2022-10-05T14:03:40.899Z,19.10
2022-10-05T14:06:13.082Z,19.10
2022-10-05T14:08:47.090Z,19.10
2022-10-05T14:11:24.345Z,19.10
2022-10-05T14:13:53.886Z,19.10
2022-10-05T14:16:22.760Z,19.10
2022-10-05T14:19:15.642Z,19.20
2022-10-05T14:21:48.160Z,19.20
2022-10-05T14:24:44.734Z,19.30
2022-10-05T14:27:29.905Z,19.30
2022-10-05T14:30:00.700Z,19.30
2022-10-05T14:32:33.988Z,19.20
2022-10-05T14:35:01.384Z,19.20
2022-10-05T14:37:33.514Z,19.30
2022-10-05T14:40:21.920Z,19.20
2022-10-05T14:42:50.096Z,19.20
2022-10-05T14:45:25.136Z,19.30
2022-10-05T14:48:09.337Z,19.40
2022-10-05T14:50:50.417Z,19.40
2022-10-05T14:53:24.033Z,19.50
2022-10-05T14:55:56.253Z,19.40
2022-10-05T14:58:36.000Z,19.50
2022-10-05T15:01:10.916Z,19.50
2022-10-05T15:03:51.248Z,19.40
2022-10-05T15:06:28.711Z,19.40
2022-10-05T15:09:02.193Z,19.30
2022-10-05T15:11:59.109Z,19.30
2022-10-05T15:14:30.410Z,19.20
2022-10-05T15:16:59.068Z,19.20
2022-10-05T15:19:41.630Z,19.10
2022-10-05T15:22:09.030Z,19.10
2022-10-05T15:24:43.848Z,19.00
2022-10-05T15:27:31.988Z,18.90
2022-10-05T15:30:12.468Z,18.90
2022-10-05T15:32:55.950Z,18.80
2022-10-05T15:35:29.997Z,18.80
2022-10-05T15:38:03.968Z,18.80
2022-10-05T15:40:36.155Z,18.80
2022-10-05T15:43:09.177Z,18.70
2022-10-05T15:45:40.592Z,18.70
2022-10-05T15:48:20.304Z,18.70
2022-10-05T15:51:01.526Z,18.70
2022-10-05T15:53:47.511Z,18.60
2022-10-05T15:56:24.684Z,18.60
2022-10-05T15:58:54.457Z,18.50
2022-10-05T16:01:28.118Z,18.30
2022-10-05T16:04:05.765Z,18.30
2022-10-05T16:06:55.989Z,18.20
2022-10-05T16:09:46.939Z,18.20
2022-10-05T16:12:20.649Z,18.10
2022-10-05T16:14:58.101Z,18.00
2022-10-05T16:17:44.333Z,18.00
2022-10-05T16:20:23.029Z,17.90
2022-10-05T16:23:02.839Z,17.80
2022-10-05T16:25:33.034Z,17.70
2022-10-05T16:28:05.247Z,17.60
2022-10-05T16:30:48.482Z,17.50
2022-10-05T16:33:34.791Z,17.50
2022-10-05T16:36:24.980Z,17.50
2022-10-05T16:38:58.022Z,17.50
2022-10-05T16:41:35.290Z,17.60
2022-10-05T16:44:21.488Z,17.60
2022-10-05T16:46:53.795Z,17.60
2022-10-05T16:49:42.844Z,17.60
2022-10-05T16:52:13.468Z,17.50
2022-10-05T16:54:48.893Z,17.60
2022-10-05T16:57:25.338Z,17.60
2022-10-05T16:59:58.461Z,17.60
2022-10-05T17:02:41.890Z,17.60
2022-10-05T17:05:21.778Z,17.60
2022-10-05T17:08:08.984Z,17.60
2022-10-05T17:10:47.664Z,17.70
2022-10-05T17:13:39.944Z,17.70
2022-10-05T17:16:20.573Z,17.70
2022-10-05T17:18:52.236Z,17.70
2022-10-05T17:21:45.501Z,17.70
2022-10-05T17:24:32.608Z,17.60
2022-10-05T17:27:13.314Z,17.60
2022-10-05T17:29:48.358Z,17.60
2022-10-05T17:32:16.287Z,17.50
2022-10-05T17:35:03.094Z,17.40
2022-10-05T17:37:35.884Z,17.30
2022-10-05T17:40:30.551Z,17.30
2022-10-05T17:43:02.439Z,17.20
2022-10-05T17:45:30.044Z,17.10
2022-10-05T17:48:02.800Z,17.10
2022-10-05T17:51:02.919Z,17.00
2022-10-05T17:53:58.424Z,16.90
2022-10-05T17:56:26.296Z,16.90
2022-10-05T17:58:54.694Z,16.80
2022-10-05T18:01:27.302Z,16.70
2022-10-05T18:03:54.857Z,16.60
2022-10-05T18:06:25.274Z,16.60
2022-10-05T18:09:33.604Z,16.60
2022-10-05T18:12:26.752Z,16.50
2022-10-05T18:15:00.179Z,16.50
2022-10-05T18:17:50.327Z,16.40
2022-10-05T18:20:25.350Z,16.40
2022-10-05T18:22:57.272Z,16.30
2022-10-05T18:25:44.067Z,16.30
2022-10-05T18:28:30.816Z,16.30
2022-10-05T18:31:05.434Z,16.30
2022-10-05T18:33:40.813Z,16.30
2022-10-05T18:36:17.829Z,16.30
2022-10-05T18:39:09.757Z,16.20
2022-10-05T18:41:49.401Z,16.10
2022-10-05T18:44:33.315Z,16.10
2022-10-05T18:47:05.890Z,16.10
2022-10-05T18:49:43.843Z,16.00
2022-10-05T18:52:31.164Z,15.90
2022-10-05T18:55:04.722Z,15.90
2022-10-05T18:57:35.152Z,15.80
2022-10-05T19:00:08.378Z,15.80
2022-10-05T19:02:41.168Z,15.80
2022-10-05T19:05:45.921Z,15.80
2022-10-05T19:08:13.357Z,15.80
2022-10-05T19:10:46.237Z,15.70
2022-10-05T19:13:43.696Z,15.80
2022-10-05T19:16:29.089Z,15.60
2022-10-05T19:19:04.954Z,15.60
2022-10-05T19:21:43.155Z,15.60
2022-10-05T19:24:27.157Z,15.70
2022-10-05T19:27:07.205Z,15.70
2022-10-05T19:29:44.037Z,15.70
2022-10-05T19:32:35.246Z,15.70
2022-10-05T19:35:11.922Z,15.50
2022-10-05T19:37:55.184Z,15.50
2022-10-05T19:40:30.901Z,15.50
2022-10-05T19:43:25.295Z,15.50
2022-10-05T19:46:15.005Z,15.50
2022-10-05T19:48:51.979Z,15.40
2022-10-05T19:51:30.080Z,15.40
2022-10-05T19:54:02.130Z,15.50
2022-10-05T19:56:37.442Z,15.40
2022-10-05T19:59:18.852Z,15.40
2022-10-05T20:01:51.690Z,15.40
2022-10-05T20:04:35.714Z,15.40
2022-10-05T20:07:05.088Z,15.40
2022-10-05T20:09:53.358Z,15.30
2022-10-05T20:12:23.250Z,15.30
2022-10-05T20:15:27.512Z,15.30
2022-10-05T20:18:16.228Z,15.30
2022-10-05T20:20:48.486Z,15.20
2022-10-05T20:23:24.581Z,15.20
2022-10-05T20:26:17.676Z,15.20
2022-10-05T20:28:48.255Z,15.20
2022-10-05T20:31:20.637Z,15.10
2022-10-05T20:33:48.774Z,15.10
2022-10-05T20:36:20.245Z,15.10
2022-10-05T20:38:50.376Z,15.00
2022-10-05T20:41:19.718Z,14.90
2022-10-05T20:43:50.263Z,14.90
2022-10-05T20:46:21.906Z,14.80
2022-10-05T20:48:54.441Z,14.80
2022-10-05T20:51:30.408Z,14.70
2022-10-05T20:54:00.839Z,14.70
2022-10-05T20:56:33.234Z,14.60
2022-10-05T20:59:01.713Z,14.60
2022-10-05T21:01:30.853Z,14.50
2022-10-05T21:06:56.766Z,14.40
2022-10-05T21:09:25.534Z,14.40
2022-10-05T21:11:57.988Z,14.40
2022-10-05T21:14:31.917Z,14.30
2022-10-05T21:17:01.222Z,14.40
2022-10-05T21:19:34.990Z,14.40
2022-10-05T21:22:05.746Z,14.40
2022-10-05T21:24:43.666Z,14.40
2022-10-05T21:27:20.865Z,14.40
2022-10-05T21:29:49.928Z,14.40
2022-10-05T21:32:21.415Z,14.40
2022-10-05T21:34:52.253Z,14.20
2022-10-05T21:37:27.251Z,14.30
2022-10-05T21:40:08.826Z,14.20
2022-10-05T21:42:37.153Z,14.20
2022-10-05T21:45:09.065Z,14.30
2022-10-05T21:47:39.916Z,14.10
2022-10-05T21:50:12.295Z,14.10
2022-10-05T21:52:51.628Z,14.10
2022-10-05T21:55:22.170Z,14.10
2022-10-05T21:57:53.292Z,14.10
2022-10-05T22:00:23.934Z,14.10
2022-10-05T22:02:56.060Z,14.10
2022-10-05T22:05:25.750Z,14.10
2022-10-05T22:07:56.748Z,14.10
2022-10-05T22:10:28.824Z,14.10
2022-10-05T22:13:01.716Z,14.00
2022-10-05T22:15:31.944Z,14.00
2022-10-05T22:18:14.002Z,14.00
2022-10-05T22:20:42.198Z,14.00
2022-10-05T22:23:12.541Z,14.10
2022-10-05T22:25:40.230Z,14.20
2022-10-05T22:28:11.443Z,14.30
2022-10-05T22:30:45.605Z,14.40
2022-10-05T22:33:17.975Z,14.50
2022-10-05T22:35:45.747Z,14.60
2022-10-05T22:38:13.597Z,14.60
2022-10-05T22:40:41.249Z,14.60
2022-10-05T22:43:09.218Z,14.70
2022-10-05T22:45:36.316Z,14.80
2022-10-05T22:48:06.672Z,14.90
2022-10-05T22:50:33.848Z,14.90
2022-10-05T22:53:05.715Z,14.90
2022-10-05T22:55:33.393Z,15.00
2022-10-05T22:58:02.086Z,14.90
2022-10-05T23:00:53.384Z,15.00
2022-10-05T23:03:18.178Z,15.10
2022-10-05T23:05:48.067Z,15.30
2022-10-05T23:08:19.016Z,15.40
2022-10-05T23:10:46.787Z,15.60
2022-10-05T23:13:15.898Z,15.70
2022-10-05T23:15:48.678Z,15.80
2022-10-05T23:18:16.831Z,15.80
2022-10-05T23:20:55.801Z,15.90
2022-10-05T23:23:25.772Z,16.10
2022-10-05T23:26:02.057Z,16.20
2022-10-05T23:28:29.788Z,16.30
2022-10-05T23:31:01.644Z,16.40
2022-10-05T23:33:30.346Z,16.40
2022-10-05T23:36:19.841Z,16.50
2022-10-05T23:38:48.829Z,16.50
2022-10-05T23:41:19.786Z,16.60
2022-10-05T23:43:48.757Z,16.60
2022-10-05T23:46:19.364Z,16.60
2022-10-05T23:48:47.522Z,16.60
2022-10-05T23:51:16.083Z,16.70
2022-10-05T23:53:49.547Z,16.80
2022-10-05T23:56:20.415Z,16.80
2022-10-05T23:58:48.613Z,16.80
